sensor_id;sensor_type;location;lat;lon;timestamp;P1;durP1;ratioP1;P2;durP2;ratioP2
5955;SDS011;3004;48.080;11.600;2023-02-04T00:01:52;69.70;;;6.90;;
5955;SDS011;3004;48.080;11.600;2023-02-04T00:04:24;69.77;;;6.83;;
5955;SDS011;3004;48.080;11.600;2023-02-04T00:10:17;69.80;;;7.07;;
5955;SDS011;3004;48.080;11.600;2023-02-04T00:12:55;70.07;;;7.07;;
5955;SDS011;3004;48.080;11.600;2023-02-04T00:26:58;70.27;;;7.40;;
5955;SDS011;3004;48.080;11.600;2023-02-04T00:32:17;70.37;;;7.50;;
5955;SDS011;3004;48.080;11.600;2023-02-04T00:41:34;70.40;;;7.70;;
5955;SDS011;3004;48.080;11.600;2023-02-04T00:50:23;69.97;;;7.83;;
5955;SDS011;3004;48.080;11.600;2023-02-04T00:53:10;69.90;;;7.83;;
5955;SDS011;3004;48.080;11.600;2023-02-04T00:56:08;69.97;;;7.87;;
5955;SDS011;3004;48.080;11.600;2023-02-04T00:58:35;69.87;;;7.87;;
5955;SDS011;3004;48.080;11.600;2023-02-04T01:11:07;69.87;;;8.10;;
5955;SDS011;3004;48.080;11.600;2023-02-04T01:23:43;69.53;;;8.27;;
5955;SDS011;3004;48.080;11.600;2023-02-04T01:26:14;69.20;;;8.10;;
5955;SDS011;3004;48.080;11.600;2023-02-04T01:31:45;69.37;;;8.10;;
5955;SDS011;3004;48.080;11.600;2023-02-04T01:34:14;68.97;;;8.10;;
5955;SDS011;3004;48.080;11.600;2023-02-04T01:36:46;69.30;;;8.30;;
5955;SDS011;3004;48.080;11.600;2023-02-04T01:39:19;69.43;;;8.20;;
5955;SDS011;3004;48.080;11.600;2023-02-04T01:41:57;69.23;;;8.23;;
5955;SDS011;3004;48.080;11.600;2023-02-04T01:44:26;69.40;;;8.23;;
5955;SDS011;3004;48.080;11.600;2023-02-04T01:46:54;69.27;;;8.13;;
5955;SDS011;3004;48.080;11.600;2023-02-04T01:49:21;69.33;;;8.13;;
5955;SDS011;3004;48.080;11.600;2023-02-04T01:52:01;69.40;;;8.07;;
5955;SDS011;3004;48.080;11.600;2023-02-04T01:54:41;69.10;;;8.13;;
5955;SDS011;3004;48.080;11.600;2023-02-04T01:57:13;69.40;;;8.10;;
5955;SDS011;3004;48.080;11.600;2023-02-04T01:59:42;69.47;;;8.20;;
5955;SDS011;3004;48.080;11.600;2023-02-04T02:05:15;69.30;;;8.13;;
5955;SDS011;3004;48.080;11.600;2023-02-04T02:07:49;69.57;;;8.10;;
5955;SDS011;3004;48.080;11.600;2023-02-04T02:10:19;69.40;;;8.07;;
5955;SDS011;3004;48.080;11.600;2023-02-04T02:12:48;69.20;;;8.07;;
5955;SDS011;3004;48.080;11.600;2023-02-04T02:15:16;69.47;;;8.10;;
5955;SDS011;3004;48.080;11.600;2023-02-04T02:17:44;69.47;;;8.07;;
5955;SDS011;3004;48.080;11.600;2023-02-04T02:20:15;69.17;;;8.07;;
5955;SDS011;3004;48.080;11.600;2023-02-04T02:22:50;69.30;;;8.17;;
5955;SDS011;3004;48.080;11.600;2023-02-04T02:25:28;68.87;;;8.20;;
5955;SDS011;3004;48.080;11.600;2023-02-04T02:27:57;69.03;;;8.23;;
5955;SDS011;3004;48.080;11.600;2023-02-04T02:30:25;69.30;;;8.40;;
5955;SDS011;3004;48.080;11.600;2023-02-04T02:36:10;68.77;;;8.37;;
5955;SDS011;3004;48.080;11.600;2023-02-04T02:45:30;68.57;;;8.47;;
5955;SDS011;3004;48.080;11.600;2023-02-04T03:17:48;68.80;;;8.27;;
5955;SDS011;3004;48.080;11.600;2023-02-04T03:20:20;69.30;;;8.37;;
5955;SDS011;3004;48.080;11.600;2023-02-04T03:23:05;69.17;;;8.10;;
5955;SDS011;3004;48.080;11.600;2023-02-04T03:25:42;69.73;;;8.40;;
5955;SDS011;3004;48.080;11.600;2023-02-04T03:28:09;69.37;;;8.10;;
5955;SDS011;3004;48.080;11.600;2023-02-04T03:30:36;69.40;;;8.20;;
5955;SDS011;3004;48.080;11.600;2023-02-04T03:36:49;69.50;;;8.03;;
5955;SDS011;3004;48.080;11.600;2023-02-04T03:45:48;69.93;;;7.90;;
5955;SDS011;3004;48.080;11.600;2023-02-04T04:04:36;69.97;;;7.70;;
5955;SDS011;3004;48.080;11.600;2023-02-04T04:07:06;69.87;;;7.63;;
5955;SDS011;3004;48.080;11.600;2023-02-04T04:09:35;69.67;;;7.50;;
5955;SDS011;3004;48.080;11.600;2023-02-04T04:12:03;69.70;;;7.43;;
5955;SDS011;3004;48.080;11.600;2023-02-04T04:14:32;69.67;;;7.30;;
5955;SDS011;3004;48.080;11.600;2023-02-04T04:16:59;69.23;;;7.33;;
5955;SDS011;3004;48.080;11.600;2023-02-04T04:19:29;69.57;;;7.63;;
5955;SDS011;3004;48.080;11.600;2023-02-04T04:22:01;69.40;;;7.30;;
5955;SDS011;3004;48.080;11.600;2023-02-04T04:24:28;69.53;;;7.37;;
5955;SDS011;3004;48.080;11.600;2023-02-04T04:26:55;69.40;;;7.20;;
5955;SDS011;3004;48.080;11.600;2023-02-04T04:29:28;69.17;;;7.00;;
5955;SDS011;3004;48.080;11.600;2023-02-04T04:32:09;68.93;;;6.93;;
5955;SDS011;3004;48.080;11.600;2023-02-04T04:34:54;69.40;;;6.87;;
5955;SDS011;3004;48.080;11.600;2023-02-04T04:43:19;68.80;;;6.67;;
5955;SDS011;3004;48.080;11.600;2023-02-04T04:46:00;70.57;;;6.67;;
5955;SDS011;3004;48.080;11.600;2023-02-04T04:48:30;68.30;;;6.43;;
5955;SDS011;3004;48.080;11.600;2023-02-04T04:50:59;70.20;;;7.23;;
5955;SDS011;3004;48.080;11.600;2023-02-04T04:53:31;68.20;;;6.10;;
5955;SDS011;3004;48.080;11.600;2023-02-04T05:02:39;67.90;;;6.00;;
5955;SDS011;3004;48.080;11.600;2023-02-04T05:05:07;68.77;;;6.40;;
5955;SDS011;3004;48.080;11.600;2023-02-04T05:07:34;68.50;;;6.03;;
5955;SDS011;3004;48.080;11.600;2023-02-04T05:10:03;68.27;;;5.90;;
5955;SDS011;3004;48.080;11.600;2023-02-04T05:12:34;67.90;;;5.83;;
5955;SDS011;3004;48.080;11.600;2023-02-04T05:15:05;68.13;;;5.83;;
5955;SDS011;3004;48.080;11.600;2023-02-04T05:17:33;67.80;;;5.73;;
5955;SDS011;3004;48.080;11.600;2023-02-04T05:25:35;68.17;;;5.70;;
5955;SDS011;3004;48.080;11.600;2023-02-04T05:28:02;67.80;;;5.70;;
5955;SDS011;3004;48.080;11.600;2023-02-04T05:30:30;68.17;;;5.67;;
5955;SDS011;3004;48.080;11.600;2023-02-04T05:32:57;68.27;;;5.57;;
5955;SDS011;3004;48.080;11.600;2023-02-04T05:35:27;68.10;;;5.80;;
5955;SDS011;3004;48.080;11.600;2023-02-04T05:37:55;68.30;;;5.60;;
5955;SDS011;3004;48.080;11.600;2023-02-04T05:40:22;67.77;;;5.53;;
5955;SDS011;3004;48.080;11.600;2023-02-04T05:42:50;68.03;;;5.57;;
5955;SDS011;3004;48.080;11.600;2023-02-04T05:45:17;67.70;;;5.50;;
5955;SDS011;3004;48.080;11.600;2023-02-04T05:47:45;67.77;;;5.43;;
5955;SDS011;3004;48.080;11.600;2023-02-04T05:50:12;67.60;;;5.47;;
5955;SDS011;3004;48.080;11.600;2023-02-04T05:52:41;67.80;;;5.43;;
5955;SDS011;3004;48.080;11.600;2023-02-04T05:55:09;67.70;;;5.43;;
5955;SDS011;3004;48.080;11.600;2023-02-04T05:57:37;67.97;;;5.60;;
5955;SDS011;3004;48.080;11.600;2023-02-04T06:00:05;68.00;;;5.57;;
5955;SDS011;3004;48.080;11.600;2023-02-04T06:02:33;67.77;;;5.50;;
5955;SDS011;3004;48.080;11.600;2023-02-04T06:05:02;67.97;;;5.53;;
5955;SDS011;3004;48.080;11.600;2023-02-04T06:07:39;67.70;;;5.47;;
5955;SDS011;3004;48.080;11.600;2023-02-04T06:10:10;67.60;;;5.47;;
5955;SDS011;3004;48.080;11.600;2023-02-04T06:12:40;67.60;;;5.40;;
5955;SDS011;3004;48.080;11.600;2023-02-04T06:15:10;67.90;;;5.50;;
5955;SDS011;3004;48.080;11.600;2023-02-04T06:17:37;67.80;;;5.40;;
5955;SDS011;3004;48.080;11.600;2023-02-04T06:20:04;68.07;;;5.43;;
5955;SDS011;3004;48.080;11.600;2023-02-04T06:22:35;68.00;;;5.50;;
5955;SDS011;3004;48.080;11.600;2023-02-04T06:25:04;68.07;;;5.50;;
5955;SDS011;3004;48.080;11.600;2023-02-04T06:27:31;68.47;;;5.90;;
5955;SDS011;3004;48.080;11.600;2023-02-04T06:29:59;68.63;;;6.10;;
5955;SDS011;3004;48.080;11.600;2023-02-04T06:32:28;69.20;;;6.20;;
5955;SDS011;3004;48.080;11.600;2023-02-04T06:34:57;68.00;;;5.53;;
5955;SDS011;3004;48.080;11.600;2023-02-04T06:37:25;68.10;;;5.90;;
5955;SDS011;3004;48.080;11.600;2023-02-04T06:39:57;67.70;;;5.57;;
5955;SDS011;3004;48.080;11.600;2023-02-04T06:42:28;68.37;;;5.90;;
5955;SDS011;3004;48.080;11.600;2023-02-04T06:44:57;67.60;;;5.40;;
5955;SDS011;3004;48.080;11.600;2023-02-04T06:47:29;67.90;;;5.47;;
5955;SDS011;3004;48.080;11.600;2023-02-04T06:50:00;67.70;;;5.50;;
5955;SDS011;3004;48.080;11.600;2023-02-04T06:52:28;68.23;;;5.57;;
5955;SDS011;3004;48.080;11.600;2023-02-04T06:54:56;68.00;;;6.33;;
5955;SDS011;3004;48.080;11.600;2023-02-04T06:57:23;68.37;;;5.57;;
5955;SDS011;3004;48.080;11.600;2023-02-04T06:59:56;67.80;;;5.57;;
5955;SDS011;3004;48.080;11.600;2023-02-04T07:02:24;68.73;;;6.10;;
5955;SDS011;3004;48.080;11.600;2023-02-04T07:04:53;68.27;;;5.50;;
5955;SDS011;3004;48.080;11.600;2023-02-04T07:07:26;67.70;;;5.53;;
5955;SDS011;3004;48.080;11.600;2023-02-04T07:09:53;67.93;;;5.57;;
5955;SDS011;3004;48.080;11.600;2023-02-04T07:12:30;67.97;;;5.40;;
5955;SDS011;3004;48.080;11.600;2023-02-04T07:15:11;67.67;;;5.37;;
5955;SDS011;3004;48.080;11.600;2023-02-04T07:17:46;68.17;;;5.40;;
5955;SDS011;3004;48.080;11.600;2023-02-04T07:20:19;68.10;;;5.53;;
5955;SDS011;3004;48.080;11.600;2023-02-04T07:29:09;67.50;;;5.20;;
5955;SDS011;3004;48.080;11.600;2023-02-04T07:31:40;67.80;;;5.30;;
5955;SDS011;3004;48.080;11.600;2023-02-04T07:34:13;67.67;;;5.30;;
5955;SDS011;3004;48.080;11.600;2023-02-04T07:39:33;67.30;;;5.00;;
5955;SDS011;3004;48.080;11.600;2023-02-04T07:42:00;67.00;;;4.80;;
5955;SDS011;3004;48.080;11.600;2023-02-04T07:44:29;67.10;;;4.70;;
5955;SDS011;3004;48.080;11.600;2023-02-04T07:47:05;66.97;;;4.60;;
5955;SDS011;3004;48.080;11.600;2023-02-04T07:49:36;67.10;;;4.80;;
5955;SDS011;3004;48.080;11.600;2023-02-04T07:52:06;66.90;;;4.47;;
5955;SDS011;3004;48.080;11.600;2023-02-04T07:54:44;66.67;;;4.40;;
5955;SDS011;3004;48.080;11.600;2023-02-04T07:57:27;66.50;;;4.30;;
5955;SDS011;3004;48.080;11.600;2023-02-04T08:00:01;66.60;;;4.30;;
5955;SDS011;3004;48.080;11.600;2023-02-04T08:02:33;66.83;;;4.23;;
5955;SDS011;3004;48.080;11.600;2023-02-04T08:05:00;66.63;;;4.30;;
5955;SDS011;3004;48.080;11.600;2023-02-04T08:07:38;66.37;;;4.30;;
5955;SDS011;3004;48.080;11.600;2023-02-04T08:10:10;66.50;;;4.23;;
5955;SDS011;3004;48.080;11.600;2023-02-04T08:12:37;66.47;;;4.17;;
5955;SDS011;3004;48.080;11.600;2023-02-04T08:15:20;66.57;;;4.10;;
5955;SDS011;3004;48.080;11.600;2023-02-04T08:17:59;67.60;;;5.60;;
5955;SDS011;3004;48.080;11.600;2023-02-04T08:20:28;66.53;;;4.20;;
5955;SDS011;3004;48.080;11.600;2023-02-04T08:23:01;66.23;;;3.83;;
5955;SDS011;3004;48.080;11.600;2023-02-04T08:25:28;65.70;;;3.73;;
5955;SDS011;3004;48.080;11.600;2023-02-04T08:27:55;65.87;;;3.70;;
5955;SDS011;3004;48.080;11.600;2023-02-04T08:30:28;65.50;;;3.70;;
5955;SDS011;3004;48.080;11.600;2023-02-04T08:32:55;65.47;;;3.60;;
5955;SDS011;3004;48.080;11.600;2023-02-04T08:35:28;66.00;;;3.70;;
5955;SDS011;3004;48.080;11.600;2023-02-04T08:37:59;66.07;;;3.80;;
5955;SDS011;3004;48.080;11.600;2023-02-04T08:40:28;65.77;;;3.60;;
5955;SDS011;3004;48.080;11.600;2023-02-04T08:42:56;65.67;;;3.57;;
5955;SDS011;3004;48.080;11.600;2023-02-04T08:45:28;65.67;;;3.50;;
5955;SDS011;3004;48.080;11.600;2023-02-04T08:47:59;65.30;;;3.30;;
5955;SDS011;3004;48.080;11.600;2023-02-04T08:50:30;65.77;;;3.50;;
5955;SDS011;3004;48.080;11.600;2023-02-04T08:53:00;65.50;;;3.40;;
5955;SDS011;3004;48.080;11.600;2023-02-04T08:55:27;65.80;;;3.37;;
5955;SDS011;3004;48.080;11.600;2023-02-04T08:58:01;65.80;;;3.70;;
5955;SDS011;3004;48.080;11.600;2023-02-04T09:00:30;65.77;;;3.27;;
5955;SDS011;3004;48.080;11.600;2023-02-04T09:03:06;65.83;;;3.50;;
5955;SDS011;3004;48.080;11.600;2023-02-04T09:05:36;65.73;;;3.23;;
5955;SDS011;3004;48.080;11.600;2023-02-04T09:08:04;65.57;;;3.20;;
5955;SDS011;3004;48.080;11.600;2023-02-04T09:10:33;65.67;;;3.10;;
5955;SDS011;3004;48.080;11.600;2023-02-04T09:13:02;68.90;;;4.17;;
5955;SDS011;3004;48.080;11.600;2023-02-04T09:15:29;65.57;;;3.00;;
5955;SDS011;3004;48.080;11.600;2023-02-04T09:17:58;65.30;;;3.10;;
5955;SDS011;3004;48.080;11.600;2023-02-04T09:20:41;67.43;;;4.47;;
5955;SDS011;3004;48.080;11.600;2023-02-04T09:23:11;65.63;;;3.07;;
5955;SDS011;3004;48.080;11.600;2023-02-04T09:25:41;65.77;;;3.20;;
5955;SDS011;3004;48.080;11.600;2023-02-04T09:28:11;65.47;;;2.90;;
5955;SDS011;3004;48.080;11.600;2023-02-04T09:30:42;65.57;;;2.83;;
5955;SDS011;3004;48.080;11.600;2023-02-04T09:33:16;65.47;;;3.10;;
5955;SDS011;3004;48.080;11.600;2023-02-04T09:35:56;65.13;;;2.80;;
5955;SDS011;3004;48.080;11.600;2023-02-04T09:38:23;65.33;;;2.87;;
5955;SDS011;3004;48.080;11.600;2023-02-04T09:40:52;65.47;;;2.77;;
5955;SDS011;3004;48.080;11.600;2023-02-04T09:43:21;65.33;;;2.70;;
5955;SDS011;3004;48.080;11.600;2023-02-04T09:45:49;65.10;;;2.70;;
5955;SDS011;3004;48.080;11.600;2023-02-04T09:48:19;65.27;;;2.60;;
5955;SDS011;3004;48.080;11.600;2023-02-04T09:50:47;65.37;;;2.80;;
5955;SDS011;3004;48.080;11.600;2023-02-04T09:53:18;64.80;;;2.60;;
5955;SDS011;3004;48.080;11.600;2023-02-04T09:55:50;65.47;;;3.47;;
5955;SDS011;3004;48.080;11.600;2023-02-04T09:58:22;64.93;;;2.60;;
5955;SDS011;3004;48.080;11.600;2023-02-04T10:00:55;65.17;;;2.50;;
5955;SDS011;3004;48.080;11.600;2023-02-04T10:03:24;64.80;;;2.60;;
5955;SDS011;3004;48.080;11.600;2023-02-04T10:05:51;64.97;;;2.60;;
5955;SDS011;3004;48.080;11.600;2023-02-04T10:08:23;65.70;;;3.23;;
5955;SDS011;3004;48.080;11.600;2023-02-04T10:11:06;64.70;;;2.50;;
5955;SDS011;3004;48.080;11.600;2023-02-04T10:13:40;65.07;;;2.60;;
5955;SDS011;3004;48.080;11.600;2023-02-04T10:19:09;65.17;;;2.60;;
5955;SDS011;3004;48.080;11.600;2023-02-04T10:21:41;65.23;;;2.50;;
5955;SDS011;3004;48.080;11.600;2023-02-04T10:24:11;63.80;;;2.40;;
5955;SDS011;3004;48.080;11.600;2023-02-04T10:26:41;65.33;;;2.40;;
5955;SDS011;3004;48.080;11.600;2023-02-04T10:29:16;65.07;;;2.47;;
5955;SDS011;3004;48.080;11.600;2023-02-04T10:47:15;64.90;;;2.60;;
5955;SDS011;3004;48.080;11.600;2023-02-04T10:52:48;65.83;;;4.13;;
5955;SDS011;3004;48.080;11.600;2023-02-04T10:55:21;65.10;;;2.80;;
5955;SDS011;3004;48.080;11.600;2023-02-04T10:57:50;65.33;;;2.90;;
5955;SDS011;3004;48.080;11.600;2023-02-04T11:00:30;66.07;;;3.37;;
5955;SDS011;3004;48.080;11.600;2023-02-04T11:03:17;65.50;;;3.10;;
5955;SDS011;3004;48.080;11.600;2023-02-04T11:05:47;65.67;;;3.43;;
5955;SDS011;3004;48.080;11.600;2023-02-04T11:08:17;65.57;;;3.20;;
5955;SDS011;3004;48.080;11.600;2023-02-04T11:11:06;65.83;;;3.10;;
5955;SDS011;3004;48.080;11.600;2023-02-04T11:14:42;66.03;;;3.30;;
5955;SDS011;3004;48.080;11.600;2023-02-04T11:17:30;65.67;;;3.30;;
5955;SDS011;3004;48.080;11.600;2023-02-04T11:20:14;65.93;;;3.40;;
5955;SDS011;3004;48.080;11.600;2023-02-04T11:22:44;65.87;;;3.37;;
5955;SDS011;3004;48.080;11.600;2023-02-04T11:28:25;65.27;;;3.20;;
5955;SDS011;3004;48.080;11.600;2023-02-04T11:30:58;65.07;;;2.80;;
5955;SDS011;3004;48.080;11.600;2023-02-04T11:52:03;65.27;;;2.90;;
5955;SDS011;3004;48.080;11.600;2023-02-04T11:54:33;65.07;;;2.80;;
5955;SDS011;3004;48.080;11.600;2023-02-04T11:57:25;65.20;;;2.80;;
5955;SDS011;3004;48.080;11.600;2023-02-04T11:59:52;65.90;;;3.50;;
5955;SDS011;3004;48.080;11.600;2023-02-04T12:02:22;65.00;;;2.70;;
5955;SDS011;3004;48.080;11.600;2023-02-04T12:05:15;65.07;;;2.70;;
5955;SDS011;3004;48.080;11.600;2023-02-04T12:07:47;65.27;;;2.70;;
5955;SDS011;3004;48.080;11.600;2023-02-04T12:13:21;64.97;;;2.80;;
5955;SDS011;3004;48.080;11.600;2023-02-04T12:19:09;64.70;;;2.60;;
5955;SDS011;3004;48.080;11.600;2023-02-04T12:21:38;64.70;;;2.50;;
5955;SDS011;3004;48.080;11.600;2023-02-04T12:30:27;65.37;;;2.93;;
5955;SDS011;3004;48.080;11.600;2023-02-04T12:33:09;64.80;;;2.47;;
5955;SDS011;3004;48.080;11.600;2023-02-04T12:35:37;64.97;;;1.90;;
5955;SDS011;3004;48.080;11.600;2023-02-04T12:38:23;64.87;;;1.80;;
5955;SDS011;3004;48.080;11.600;2023-02-04T12:40:53;64.60;;;1.90;;
5955;SDS011;3004;48.080;11.600;2023-02-04T12:43:22;64.70;;;2.20;;
5955;SDS011;3004;48.080;11.600;2023-02-04T12:45:53;64.77;;;2.50;;
5955;SDS011;3004;48.080;11.600;2023-02-04T12:48:21;64.77;;;2.30;;
5955;SDS011;3004;48.080;11.600;2023-02-04T12:51:03;65.13;;;2.20;;
5955;SDS011;3004;48.080;11.600;2023-02-04T12:53:37;64.27;;;2.30;;
5955;SDS011;3004;48.080;11.600;2023-02-04T12:56:12;65.47;;;2.90;;
5955;SDS011;3004;48.080;11.600;2023-02-04T12:58:56;65.07;;;2.60;;
5955;SDS011;3004;48.080;11.600;2023-02-04T13:01:29;64.97;;;2.23;;
5955;SDS011;3004;48.080;11.600;2023-02-04T13:04:00;64.77;;;2.30;;
5955;SDS011;3004;48.080;11.600;2023-02-04T13:06:29;64.63;;;2.20;;
5955;SDS011;3004;48.080;11.600;2023-02-04T13:08:57;64.50;;;2.10;;
5955;SDS011;3004;48.080;11.600;2023-02-04T13:11:27;64.87;;;2.10;;
5955;SDS011;3004;48.080;11.600;2023-02-04T13:13:54;64.60;;;2.00;;
5955;SDS011;3004;48.080;11.600;2023-02-04T13:16:22;64.97;;;2.10;;
5955;SDS011;3004;48.080;11.600;2023-02-04T13:18:51;65.17;;;2.10;;
5955;SDS011;3004;48.080;11.600;2023-02-04T13:21:18;64.87;;;2.20;;
5955;SDS011;3004;48.080;11.600;2023-02-04T13:23:48;64.83;;;2.30;;
5955;SDS011;3004;48.080;11.600;2023-02-04T13:26:29;64.90;;;2.43;;
5955;SDS011;3004;48.080;11.600;2023-02-04T13:29:06;64.50;;;2.23;;
5955;SDS011;3004;48.080;11.600;2023-02-04T13:31:40;64.77;;;2.30;;
5955;SDS011;3004;48.080;11.600;2023-02-04T13:34:24;65.83;;;3.07;;
5955;SDS011;3004;48.080;11.600;2023-02-04T13:36:54;65.60;;;2.43;;
5955;SDS011;3004;48.080;11.600;2023-02-04T13:39:23;64.70;;;2.00;;
5955;SDS011;3004;48.080;11.600;2023-02-04T13:41:55;65.07;;;2.00;;
5955;SDS011;3004;48.080;11.600;2023-02-04T13:44:28;64.97;;;2.00;;
5955;SDS011;3004;48.080;11.600;2023-02-04T13:46:57;65.03;;;2.00;;
5955;SDS011;3004;48.080;11.600;2023-02-04T13:49:29;64.97;;;1.87;;
5955;SDS011;3004;48.080;11.600;2023-02-04T13:51:56;65.50;;;2.50;;
5955;SDS011;3004;48.080;11.600;2023-02-04T13:54:27;64.60;;;1.70;;
5955;SDS011;3004;48.080;11.600;2023-02-04T13:56:57;64.67;;;1.80;;
5955;SDS011;3004;48.080;11.600;2023-02-04T13:59:31;64.93;;;1.90;;
5955;SDS011;3004;48.080;11.600;2023-02-04T14:02:09;64.87;;;1.90;;
5955;SDS011;3004;48.080;11.600;2023-02-04T14:07:38;64.77;;;1.80;;
5955;SDS011;3004;48.080;11.600;2023-02-04T14:10:08;64.57;;;1.83;;
5955;SDS011;3004;48.080;11.600;2023-02-04T14:12:45;64.70;;;2.00;;
5955;SDS011;3004;48.080;11.600;2023-02-04T14:15:18;65.03;;;2.30;;
5955;SDS011;3004;48.080;11.600;2023-02-04T14:17:51;64.87;;;2.00;;
5955;SDS011;3004;48.080;11.600;2023-02-04T14:20:47;65.17;;;2.10;;
5955;SDS011;3004;48.080;11.600;2023-02-04T14:23:16;64.47;;;2.00;;
5955;SDS011;3004;48.080;11.600;2023-02-04T14:25:47;64.77;;;2.10;;
5955;SDS011;3004;48.080;11.600;2023-02-04T14:28:14;64.50;;;2.20;;
5955;SDS011;3004;48.080;11.600;2023-02-04T14:30:43;64.43;;;2.33;;
5955;SDS011;3004;48.080;11.600;2023-02-04T14:33:25;64.70;;;2.47;;
5955;SDS011;3004;48.080;11.600;2023-02-04T14:35:59;64.70;;;2.37;;
5955;SDS011;3004;48.080;11.600;2023-02-04T14:38:37;65.20;;;2.47;;
5955;SDS011;3004;48.080;11.600;2023-02-04T14:45:03;65.50;;;3.33;;
5955;SDS011;3004;48.080;11.600;2023-02-04T14:47:23;65.07;;;2.50;;
5955;SDS011;3004;48.080;11.600;2023-02-04T15:00:24;64.77;;;2.20;;
5955;SDS011;3004;48.080;11.600;2023-02-04T15:02:58;64.60;;;2.00;;
5955;SDS011;3004;48.080;11.600;2023-02-04T15:05:32;65.03;;;2.50;;
5955;SDS011;3004;48.080;11.600;2023-02-04T15:08:02;64.67;;;1.90;;
5955;SDS011;3004;48.080;11.600;2023-02-04T15:10:43;64.60;;;1.90;;
5955;SDS011;3004;48.080;11.600;2023-02-04T15:13:23;64.87;;;1.90;;
5955;SDS011;3004;48.080;11.600;2023-02-04T15:29:35;65.33;;;2.43;;
5955;SDS011;3004;48.080;11.600;2023-02-04T15:49:34;64.87;;;1.80;;
5955;SDS011;3004;48.080;11.600;2023-02-04T15:52:31;64.60;;;1.90;;
5955;SDS011;3004;48.080;11.600;2023-02-04T15:55:14;64.57;;;1.83;;
5955;SDS011;3004;48.080;11.600;2023-02-04T15:58:03;65.00;;;1.70;;
5955;SDS011;3004;48.080;11.600;2023-02-04T16:18:15;64.80;;;1.60;;
5955;SDS011;3004;48.080;11.600;2023-02-04T16:21:06;65.13;;;1.90;;
5955;SDS011;3004;48.080;11.600;2023-02-04T16:23:38;64.83;;;1.80;;
5955;SDS011;3004;48.080;11.600;2023-02-04T16:26:30;64.97;;;1.90;;
5955;SDS011;3004;48.080;11.600;2023-02-04T17:00:20;64.77;;;1.60;;
5955;SDS011;3004;48.080;11.600;2023-02-04T17:03:07;65.30;;;2.10;;
5955;SDS011;3004;48.080;11.600;2023-02-04T17:05:50;64.87;;;1.57;;
5955;SDS011;3004;48.080;11.600;2023-02-04T17:08:25;64.97;;;2.00;;
5955;SDS011;3004;48.080;11.600;2023-02-04T17:10:59;64.63;;;1.50;;
5955;SDS011;3004;48.080;11.600;2023-02-04T17:25:30;65.13;;;1.60;;
5955;SDS011;3004;48.080;11.600;2023-02-04T17:28:13;68.37;;;4.23;;
5955;SDS011;3004;48.080;11.600;2023-02-04T17:33:53;64.97;;;1.40;;
5955;SDS011;3004;48.080;11.600;2023-02-04T17:36:34;65.90;;;3.13;;
5955;SDS011;3004;48.080;11.600;2023-02-04T17:40:57;64.77;;;1.43;;
5955;SDS011;3004;48.080;11.600;2023-02-04T17:45:12;64.90;;;1.50;;
5955;SDS011;3004;48.080;11.600;2023-02-04T17:47:45;64.67;;;1.50;;
5955;SDS011;3004;48.080;11.600;2023-02-04T17:50:57;64.70;;;1.40;;
5955;SDS011;3004;48.080;11.600;2023-02-04T17:53:48;64.80;;;1.80;;
5955;SDS011;3004;48.080;11.600;2023-02-04T17:56:23;64.97;;;1.60;;
5955;SDS011;3004;48.080;11.600;2023-02-04T17:59:07;64.87;;;1.80;;
5955;SDS011;3004;48.080;11.600;2023-02-04T18:01:47;65.50;;;1.90;;
5955;SDS011;3004;48.080;11.600;2023-02-04T18:04:43;64.57;;;1.60;;
5955;SDS011;3004;48.080;11.600;2023-02-04T18:07:17;65.27;;;2.07;;
5955;SDS011;3004;48.080;11.600;2023-02-04T18:10:03;65.27;;;2.07;;
5955;SDS011;3004;48.080;11.600;2023-02-04T18:12:47;64.97;;;1.67;;
5955;SDS011;3004;48.080;11.600;2023-02-04T18:15:41;65.07;;;1.60;;
5955;SDS011;3004;48.080;11.600;2023-02-04T18:21:13;64.67;;;1.50;;
5955;SDS011;3004;48.080;11.600;2023-02-04T18:24:05;64.97;;;1.50;;
5955;SDS011;3004;48.080;11.600;2023-02-04T18:27:07;65.27;;;2.00;;
5955;SDS011;3004;48.080;11.600;2023-02-04T18:29:41;64.70;;;1.60;;
5955;SDS011;3004;48.080;11.600;2023-02-04T18:32:19;64.60;;;1.60;;
5955;SDS011;3004;48.080;11.600;2023-02-04T18:34:56;64.90;;;1.73;;
5955;SDS011;3004;48.080;11.600;2023-02-04T18:37:51;65.23;;;1.73;;
5955;SDS011;3004;48.080;11.600;2023-02-04T18:40:29;64.77;;;1.70;;
5955;SDS011;3004;48.080;11.600;2023-02-04T18:43:26;65.10;;;1.80;;
5955;SDS011;3004;48.080;11.600;2023-02-04T18:45:57;64.87;;;1.60;;
5955;SDS011;3004;48.080;11.600;2023-02-04T18:51:31;64.87;;;1.70;;
5955;SDS011;3004;48.080;11.600;2023-02-04T19:02:48;66.47;;;3.13;;
5955;SDS011;3004;48.080;11.600;2023-02-04T19:05:30;64.73;;;1.80;;
5955;SDS011;3004;48.080;11.600;2023-02-04T19:08:23;64.83;;;1.73;;
5955;SDS011;3004;48.080;11.600;2023-02-04T19:11:25;64.77;;;1.90;;
5955;SDS011;3004;48.080;11.600;2023-02-04T19:14:20;64.80;;;1.90;;
5955;SDS011;3004;48.080;11.600;2023-02-04T19:17:12;64.67;;;2.00;;
5955;SDS011;3004;48.080;11.600;2023-02-04T19:23:13;64.60;;;1.93;;
5955;SDS011;3004;48.080;11.600;2023-02-04T19:26:02;64.67;;;1.97;;
5955;SDS011;3004;48.080;11.600;2023-02-04T19:29:35;65.07;;;2.00;;
5955;SDS011;3004;48.080;11.600;2023-02-04T19:45:11;65.17;;;2.30;;
5955;SDS011;3004;48.080;11.600;2023-02-04T19:47:55;65.07;;;2.40;;
5955;SDS011;3004;48.080;11.600;2023-02-04T20:00:50;64.77;;;2.40;;
5955;SDS011;3004;48.080;11.600;2023-02-04T20:03:32;64.97;;;2.50;;
5955;SDS011;3004;48.080;11.600;2023-02-04T20:06:39;65.07;;;2.50;;
5955;SDS011;3004;48.080;11.600;2023-02-04T20:09:24;65.00;;;2.50;;
5955;SDS011;3004;48.080;11.600;2023-02-04T20:12:21;65.00;;;2.57;;
5955;SDS011;3004;48.080;11.600;2023-02-04T20:14:58;66.00;;;3.67;;
5955;SDS011;3004;48.080;11.600;2023-02-04T20:17:55;65.50;;;2.70;;
5955;SDS011;3004;48.080;11.600;2023-02-04T20:21:07;65.33;;;2.60;;
5955;SDS011;3004;48.080;11.600;2023-02-04T20:24:14;65.27;;;2.90;;
5955;SDS011;3004;48.080;11.600;2023-02-04T20:27:07;65.07;;;2.70;;
5955;SDS011;3004;48.080;11.600;2023-02-04T20:30:18;65.07;;;2.90;;
5955;SDS011;3004;48.080;11.600;2023-02-04T20:33:26;65.20;;;2.70;;
5955;SDS011;3004;48.080;11.600;2023-02-04T20:36:18;65.37;;;2.77;;
5955;SDS011;3004;48.080;11.600;2023-02-04T20:39:31;64.50;;;2.60;;
5955;SDS011;3004;48.080;11.600;2023-02-04T20:45:15;65.07;;;2.80;;
5955;SDS011;3004;48.080;11.600;2023-02-04T20:48:24;65.23;;;2.70;;
5955;SDS011;3004;48.080;11.600;2023-02-04T20:51:00;65.30;;;2.70;;
5955;SDS011;3004;48.080;11.600;2023-02-04T20:53:43;65.33;;;2.70;;
5955;SDS011;3004;48.080;11.600;2023-02-04T20:56:25;64.77;;;2.73;;
5955;SDS011;3004;48.080;11.600;2023-02-04T20:59:08;65.27;;;2.80;;
5955;SDS011;3004;48.080;11.600;2023-02-04T21:01:55;65.10;;;2.70;;
5955;SDS011;3004;48.080;11.600;2023-02-04T21:04:50;65.03;;;2.77;;
5955;SDS011;3004;48.080;11.600;2023-02-04T21:07:26;65.07;;;2.80;;
5955;SDS011;3004;48.080;11.600;2023-02-04T21:09:59;65.33;;;2.80;;
5955;SDS011;3004;48.080;11.600;2023-02-04T21:12:35;65.27;;;2.77;;
5955;SDS011;3004;48.080;11.600;2023-02-04T21:15:22;65.17;;;2.70;;
5955;SDS011;3004;48.080;11.600;2023-02-04T21:17:51;65.13;;;2.80;;
5955;SDS011;3004;48.080;11.600;2023-02-04T21:23:34;65.33;;;2.90;;
5955;SDS011;3004;48.080;11.600;2023-02-04T21:26:01;65.17;;;2.80;;
5955;SDS011;3004;48.080;11.600;2023-02-04T21:28:32;65.37;;;2.90;;
5955;SDS011;3004;48.080;11.600;2023-02-04T21:31:01;65.37;;;3.13;;
5955;SDS011;3004;48.080;11.600;2023-02-04T21:33:38;65.27;;;3.00;;
5955;SDS011;3004;48.080;11.600;2023-02-04T21:36:21;65.30;;;2.90;;
5955;SDS011;3004;48.080;11.600;2023-02-04T21:38:53;65.37;;;3.00;;
5955;SDS011;3004;48.080;11.600;2023-02-04T21:41:20;65.33;;;2.80;;
5955;SDS011;3004;48.080;11.600;2023-02-04T21:43:48;64.90;;;2.90;;
5955;SDS011;3004;48.080;11.600;2023-02-04T21:46:23;65.33;;;2.80;;